Time;durP1;ratioP1;P1;durP2;ratioP2;P2;SDS_P1;SDS_P2;PMS_P1;PMS_P2;Temp;Humidity;BMP_temperature;BMP_pressure;BME280_temperature;BME280_humidity;BME280_pressure;Samples;Min_cycle;Max_cycle;Signal;HPM_P1;HPM_P2
2020/12/01 00:00:53;;;;;;;29.43;16.40;;;;;;;;;;5064058;28;20272;-78
2020/12/01 00:03:19;;;;;;;32.00;17.25;;;;;;;;;;5063490;28;20419;-77
2020/12/01 00:05:45;;;;;;;26.95;16.55;;;;;;;;;;5056998;28;20185;-79
2020/12/01 00:08:11;;;;;;;29.02;16.35;;;;;;;;;;5067018;28;20177;-78
2020/12/01 00:10:39;;;;;;;31.38;15.85;;;;;;;;;;5050539;28;20667;-78
2020/12/01 00:13:06;;;;;;;27.50;14.35;;;;;;;;;;5042875;28;20170;-78
2020/12/01 00:15:32;;;;;;;28.63;18.05;;;;;;;;;;5041981;28;20656;-78
2020/12/01 00:17:58;;;;;;;26.08;17.42;;;;;;;;;;5054344;28;20264;-78
2020/12/01 00:20:24;;;;;;;27.70;16.58;;;;;;;;;;5067812;28;20188;-78
2020/12/01 00:22:51;;;;;;;27.33;17.55;;;;;;;;;;5083480;28;20169;-78
2020/12/01 00:25:17;;;;;;;29.27;16.73;;;;;;;;;;5045235;28;20189;-78
2020/12/01 00:27:43;;;;;;;26.38;16.80;;;;;;;;;;5044974;28;20182;-78
2020/12/01 00:30:11;;;;;;;30.08;17.02;;;;;;;;;;5047373;28;20169;-77
2020/12/01 00:32:37;;;;;;;22.95;15.38;;;;;;;;;;5047641;28;20229;-78
2020/12/01 00:35:04;;;;;;;28.15;16.50;;;;;;;;;;5045547;28;20193;-77
2020/12/01 00:37:30;;;;;;;30.98;17.23;;;;;;;;;;5061827;28;20257;-78
2020/12/01 00:39:56;;;;;;;26.50;17.00;;;;;;;;;;5067197;28;20174;-78
2020/12/01 00:42:22;;;;;;;28.03;14.60;;;;;;;;;;5064925;28;20654;-78
2020/12/01 00:44:48;;;;;;;27.25;16.10;;;;;;;;;;5066933;28;20415;-78
2020/12/01 00:47:14;;;;;;;28.50;16.67;;;;;;;;;;5065280;28;20241;-78
2020/12/01 00:49:40;;;;;;;27.35;17.13;;;;;;;;;;5065470;28;20267;-77
2020/12/01 00:52:06;;;;;;;25.00;15.73;;;;;;;;;;5065468;28;20605;-78
2020/12/01 00:54:32;;;;;;;29.63;17.73;;;;;;;;;;5065922;28;20184;-78
2020/12/01 00:56:58;;;;;;;25.65;16.20;;;;;;;;;;5064872;28;20224;-78
2020/12/01 00:59:24;;;;;;;30.60;18.35;;;;;;;;;;5064795;28;20181;-78
2020/12/01 01:01:50;;;;;;;29.13;15.20;;;;;;;;;;5065032;28;20181;-78
2020/12/01 01:04:16;;;;;;;29.80;16.67;;;;;;;;;;5065365;28;20181;-77
2020/12/01 01:06:47;;;;;;;31.00;15.27;;;;;;;;;;5064468;28;20188;-77
2020/12/01 01:09:12;;;;;;;23.88;15.90;;;;;;;;;;5065934;28;20650;-78
2020/12/01 01:11:38;;;;;;;31.07;16.33;;;;;;;;;;5059865;28;20212;-77
2020/12/01 01:14:04;;;;;;;25.10;16.60;;;;;;;;;;5046243;28;20424;-78
2020/12/01 01:16:30;;;;;;;21.75;15.05;;;;;;;;;;5084590;28;20451;-78
2020/12/01 01:18:56;;;;;;;24.13;16.67;;;;;;;;;;5052971;28;20204;-77
2020/12/01 01:21:23;;;;;;;27.50;16.63;;;;;;;;;;5078637;28;20233;-77
2020/12/01 01:23:50;;;;;;;23.95;14.40;;;;;;;;;;5059733;28;20189;-77
2020/12/01 01:26:16;;;;;;;22.95;14.23;;;;;;;;;;5064275;28;20492;-78
2020/12/01 01:28:42;;;;;;;23.67;13.75;;;;;;;;;;5065607;28;20255;-78
2020/12/01 01:31:08;;;;;;;21.02;12.93;;;;;;;;;;5047126;28;20186;-78
2020/12/01 01:33:34;;;;;;;23.20;14.37;;;;;;;;;;5090581;28;20273;-78
2020/12/01 01:36:00;;;;;;;24.10;15.10;;;;;;;;;;5064482;28;20996;-78
2020/12/01 01:38:26;;;;;;;19.85;12.63;;;;;;;;;;5064013;28;20180;-78
2020/12/01 01:40:56;;;;;;;28.17;15.20;;;;;;;;;;5065911;28;20192;-78
2020/12/01 01:43:22;;;;;;;21.75;13.07;;;;;;;;;;5064131;28;20418;-78
2020/12/01 01:45:49;;;;;;;19.17;12.48;;;;;;;;;;5064369;28;20200;-77
2020/12/01 01:48:18;;;;;;;21.15;12.82;;;;;;;;;;5063806;28;20185;-78
2020/12/01 01:50:49;;;;;;;21.08;12.00;;;;;;;;;;5064442;28;20616;-77
2020/12/01 01:53:15;;;;;;;16.70;11.18;;;;;;;;;;5064174;28;20181;-77
2020/12/01 01:55:41;;;;;;;18.85;10.77;;;;;;;;;;5065178;28;20224;-77
2020/12/01 01:58:07;;;;;;;15.75;10.85;;;;;;;;;;5063584;28;20419;-78
2020/12/01 02:00:57;;;;;;;16.33;11.57;;;;;;;;;;5063666;28;20185;-77
2020/12/01 02:03:38;;;;;;;13.48;9.18;;;;;;;;;;5065630;28;20547;-78
2020/12/01 02:06:05;;;;;;;12.95;8.32;;;;;;;;;;5065960;28;20195;-78
2020/12/01 02:08:32;;;;;;;15.20;9.45;;;;;;;;;;5063251;28;20181;-77
2020/12/01 02:11:00;;;;;;;11.13;6.47;;;;;;;;;;5062965;28;20207;-77
2020/12/01 02:13:38;;;;;;;9.95;6.40;;;;;;;;;;5052991;28;20204;-77
2020/12/01 02:16:04;;;;;;;6.07;4.63;;;;;;;;;;5045929;28;20209;-78
2020/12/01 02:18:36;;;;;;;8.35;4.45;;;;;;;;;;5050008;28;20643;-80
2020/12/01 02:21:03;;;;;;;7.70;5.00;;;;;;;;;;5072945;28;20222;-77
2020/12/01 02:23:29;;;;;;;5.00;3.80;;;;;;;;;;5083561;28;20188;-78
2020/12/01 02:25:59;;;;;;;6.82;3.97;;;;;;;;;;5084807;28;20745;-78
2020/12/01 02:28:25;;;;;;;6.50;4.50;;;;;;;;;;5064617;28;20211;-78
2020/12/01 02:30:51;;;;;;;8.35;4.25;;;;;;;;;;5063499;28;20205;-78
2020/12/01 02:33:17;;;;;;;7.73;3.60;;;;;;;;;;5063595;28;20195;-79
2020/12/01 02:35:43;;;;;;;7.73;4.50;;;;;;;;;;5063162;28;20483;-80
2020/12/01 02:38:09;;;;;;;7.90;4.53;;;;;;;;;;5057387;28;20459;-78
2020/12/01 02:40:35;;;;;;;4.10;3.15;;;;;;;;;;5061684;28;20185;-79
2020/12/01 02:43:05;;;;;;;6.40;3.20;;;;;;;;;;5063772;28;20177;-77
2020/12/01 02:45:31;;;;;;;6.70;3.28;;;;;;;;;;5062164;28;20248;-76
2020/12/01 02:47:57;;;;;;;8.17;2.90;;;;;;;;;;5062394;28;20222;-79
2020/12/01 02:50:23;;;;;;;8.30;2.80;;;;;;;;;;5063293;28;20419;-78
2020/12/01 02:52:49;;;;;;;4.70;1.83;;;;;;;;;;5064398;28;20427;-78
2020/12/01 02:55:15;;;;;;;5.75;2.53;;;;;;;;;;5063808;28;20439;-80
2020/12/01 02:57:41;;;;;;;3.87;1.93;;;;;;;;;;5063330;28;20181;-80
2020/12/01 03:00:07;;;;;;;9.07;2.40;;;;;;;;;;5064915;28;20403;-78
2020/12/01 03:02:33;;;;;;;4.53;1.67;;;;;;;;;;5064505;28;20260;-78
2020/12/01 03:04:58;;;;;;;3.43;1.13;;;;;;;;;;5062906;28;20181;-77
2020/12/01 03:07:24;;;;;;;3.00;1.30;;;;;;;;;;5063707;28;20416;-77
2020/12/01 03:09:50;;;;;;;2.60;1.75;;;;;;;;;;5062786;28;20260;-78
2020/12/01 03:12:16;;;;;;;5.25;1.55;;;;;;;;;;5051887;28;20189;-78
2020/12/01 03:14:43;;;;;;;4.03;1.60;;;;;;;;;;5042389;28;20271;-77
2020/12/01 03:17:09;;;;;;;8.25;1.63;;;;;;;;;;5042190;28;20221;-76
2020/12/01 03:19:35;;;;;;;5.50;1.90;;;;;;;;;;5044285;28;20178;-77
2020/12/01 03:22:01;;;;;;;2.37;1.57;;;;;;;;;;5060166;28;20181;-76
2020/12/01 03:24:26;;;;;;;3.22;1.33;;;;;;;;;;5062428;28;20917;-76
2020/12/01 03:26:52;;;;;;;4.40;1.65;;;;;;;;;;5054243;28;20234;-77
2020/12/01 03:29:18;;;;;;;5.03;1.52;;;;;;;;;;5057627;28;20586;-77
2020/12/01 03:31:44;;;;;;;6.35;2.58;;;;;;;;;;5062845;28;20284;-76
2020/12/01 03:34:11;;;;;;;6.45;2.30;;;;;;;;;;5062517;28;20193;-77
2020/12/01 03:36:37;;;;;;;5.25;1.80;;;;;;;;;;5062400;28;20245;-77
2020/12/01 03:39:04;;;;;;;5.32;1.60;;;;;;;;;;5063763;28;20192;-77
2020/12/01 03:41:30;;;;;;;3.55;1.58;;;;;;;;;;5062261;28;20181;-77
2020/12/01 03:43:56;;;;;;;2.33;1.80;;;;;;;;;;5062425;28;20184;-76
2020/12/01 03:46:22;;;;;;;1.92;1.33;;;;;;;;;;5062814;28;20192;-76
2020/12/01 03:48:48;;;;;;;3.67;1.92;;;;;;;;;;5063004;28;20181;-76
2020/12/01 03:51:14;;;;;;;3.28;1.77;;;;;;;;;;5051290;28;20594;-77
2020/12/01 03:53:40;;;;;;;5.55;1.77;;;;;;;;;;5056348;28;20196;-76
2020/12/01 03:56:06;;;;;;;1.60;1.45;;;;;;;;;;5062781;28;20192;-76
2020/12/01 03:58:32;;;;;;;3.80;1.63;;;;;;;;;;5065682;28;20173;-77
2020/12/01 04:00:59;;;;;;;7.53;1.93;;;;;;;;;;5066866;28;20241;-77
2020/12/01 04:03:25;;;;;;;4.75;1.70;;;;;;;;;;5067478;28;20451;-77
2020/12/01 04:05:51;;;;;;;3.63;1.63;;;;;;;;;;5067820;28;20248;-77
2020/12/01 04:08:17;;;;;;;5.63;2.00;;;;;;;;;;5067352;28;20180;-77
2020/12/01 04:10:43;;;;;;;7.90;1.90;;;;;;;;;;5067643;28;20185;-77
2020/12/01 04:13:09;;;;;;;2.65;2.00;;;;;;;;;;5065826;28;20199;-76
2020/12/01 04:15:35;;;;;;;6.63;1.58;;;;;;;;;;5065990;28;20216;-77
2020/12/01 04:18:01;;;;;;;5.03;1.67;;;;;;;;;;5057921;28;20177;-76
2020/12/01 04:20:27;;;;;;;4.50;1.98;;;;;;;;;;5045929;28;20174;-77
2020/12/01 04:22:53;;;;;;;5.07;1.75;;;;;;;;;;5062458;28;20173;-77
2020/12/01 04:25:22;;;;;;;2.75;1.23;;;;;;;;;;5065893;28;20646;-76
2020/12/01 04:27:49;;;;;;;3.63;2.15;;;;;;;;;;5066976;28;20176;-76
2020/12/01 04:30:15;;;;;;;3.67;1.75;;;;;;;;;;5066947;28;20235;-77
2020/12/01 04:32:41;;;;;;;5.20;2.65;;;;;;;;;;5067766;28;20188;-76
2020/12/01 04:35:07;;;;;;;2.78;1.23;;;;;;;;;;5065838;28;20173;-76
2020/12/01 04:37:34;;;;;;;5.38;1.65;;;;;;;;;;5066815;28;20265;-77
2020/12/01 04:40:00;;;;;;;10.05;1.88;;;;;;;;;;5065238;28;20176;-77
2020/12/01 04:42:26;;;;;;;2.78;1.27;;;;;;;;;;5066038;28;20213;-77
2020/12/01 04:45:00;;;;;;;8.57;2.28;;;;;;;;;;5065361;28;20177;-77
2020/12/01 04:47:30;;;;;;;2.67;1.30;;;;;;;;;;5066925;28;20581;-77
2020/12/01 04:49:58;;;;;;;3.45;1.60;;;;;;;;;;5064780;28;20181;-77
2020/12/01 04:52:43;;;;;;;3.35;1.63;;;;;;;;;;5066981;28;20169;-77
2020/12/01 04:55:27;;;;;;;2.88;1.45;;;;;;;;;;5065389;28;20334;-77
2020/12/01 04:57:56;;;;;;;4.65;2.03;;;;;;;;;;5066442;28;20193;-77
2020/12/01 05:00:41;;;;;;;5.18;1.60;;;;;;;;;;5064653;28;20208;-76
2020/12/01 05:03:45;;;;;;;4.50;1.40;;;;;;;;;;5056335;28;20589;-77
2020/12/01 05:09:02;;;;;;;2.58;1.30;;;;;;;;;;5022560;28;20183;-77
2020/12/01 05:11:50;;;;;;;2.53;1.38;;;;;;;;;;5024266;28;20202;-77
2020/12/01 05:14:16;;;;;;;2.97;1.48;;;;;;;;;;5010580;28;20683;-76
2020/12/01 05:16:42;;;;;;;4.20;1.50;;;;;;;;;;5027332;28;20305;-77
2020/12/01 05:19:29;;;;;;;4.37;1.90;;;;;;;;;;5043229;28;20241;-76
2020/12/01 05:21:55;;;;;;;2.58;1.40;;;;;;;;;;5026751;28;20428;-76
2020/12/01 05:24:21;;;;;;;6.55;1.95;;;;;;;;;;5044150;28;20190;-76
2020/12/01 05:26:47;;;;;;;6.63;1.20;;;;;;;;;;5043373;28;20180;-76
2020/12/01 05:29:25;;;;;;;2.83;1.90;;;;;;;;;;5042485;28;20186;-76
2020/12/01 05:31:51;;;;;;;2.95;1.40;;;;;;;;;;5044050;28;20178;-77
2020/12/01 05:34:19;;;;;;;5.15;1.83;;;;;;;;;;5026904;28;20243;-77
2020/12/01 05:36:45;;;;;;;4.28;2.10;;;;;;;;;;5052300;28;20245;-77
2020/12/01 05:39:14;;;;;;;2.80;1.40;;;;;;;;;;5063736;28;20243;-77
2020/12/01 05:41:41;;;;;;;2.47;1.63;;;;;;;;;;5064224;28;20188;-77
2020/12/01 05:44:23;;;;;;;4.10;1.38;;;;;;;;;;5066000;28;20174;-77
2020/12/01 05:46:57;;;;;;;4.22;1.30;;;;;;;;;;5064682;28;20173;-76
2020/12/01 05:49:26;;;;;;;3.72;1.20;;;;;;;;;;5066027;28;20188;-76
2020/12/01 05:52:06;;;;;;;5.90;1.33;;;;;;;;;;5064231;28;20192;-76
2020/12/01 05:54:34;;;;;;;2.45;1.33;;;;;;;;;;5051723;28;20181;-77
2020/12/01 05:57:00;;;;;;;3.22;1.33;;;;;;;;;;5045639;28;20197;-77
2020/12/01 05:59:26;;;;;;;4.10;1.42;;;;;;;;;;5047681;28;20189;-77
2020/12/01 06:01:59;;;;;;;4.88;1.50;;;;;;;;;;5064401;28;20203;-77
2020/12/01 06:04:26;;;;;;;2.47;1.15;;;;;;;;;;5065529;28;20181;-77
2020/12/01 06:06:55;;;;;;;3.50;1.10;;;;;;;;;;5064942;28;20208;-77
2020/12/01 06:09:40;;;;;;;10.32;1.73;;;;;;;;;;5063087;28;20181;-76
2020/12/01 06:12:13;;;;;;;5.15;1.38;;;;;;;;;;5064177;28;20220;-77
2020/12/01 06:14:44;;;;;;;5.68;1.35;;;;;;;;;;5064785;28;20227;-77
2020/12/01 06:17:16;;;;;;;2.00;1.30;;;;;;;;;;5063265;28;20224;-75
2020/12/01 06:19:56;;;;;;;5.25;1.13;;;;;;;;;;5062939;28;20177;-76
2020/12/01 06:22:38;;;;;;;3.63;1.33;;;;;;;;;;5048826;28;20200;-76
2020/12/01 06:25:23;;;;;;;2.65;1.30;;;;;;;;;;5051186;28;20265;-76
2020/12/01 06:28:01;;;;;;;2.38;1.17;;;;;;;;;;5044536;28;20257;-77
2020/12/01 06:30:46;;;;;;;1.95;1.40;;;;;;;;;;5044111;28;20181;-77
2020/12/01 06:33:32;;;;;;;4.70;1.15;;;;;;;;;;5063634;28;20185;-76
2020/12/01 06:35:58;;;;;;;4.85;1.65;;;;;;;;;;5063069;28;20251;-77
2020/12/01 06:38:42;;;;;;;5.50;1.27;;;;;;;;;;5064124;28;20173;-77
2020/12/01 06:41:11;;;;;;;7.25;1.70;;;;;;;;;;5064458;28;20483;-77
2020/12/01 06:43:39;;;;;;;3.80;1.42;;;;;;;;;;5063191;28;20169;-77
2020/12/01 06:46:21;;;;;;;5.68;1.48;;;;;;;;;;5063323;28;20181;-76
2020/12/01 06:48:48;;;;;;;3.78;1.70;;;;;;;;;;5061927;28;20205;-77
2020/12/01 06:51:14;;;;;;;1.75;1.33;;;;;;;;;;5062515;28;20211;-79
2020/12/01 06:53:41;;;;;;;5.93;1.80;;;;;;;;;;5063317;28;20181;-76
2020/12/01 06:56:07;;;;;;;4.30;1.20;;;;;;;;;;5063419;28;20227;-77
2020/12/01 06:58:41;;;;;;;1.58;1.20;;;;;;;;;;5063235;28;20533;-77
2020/12/01 07:01:25;;;;;;;5.25;1.77;;;;;;;;;;5064158;28;20528;-77
2020/12/01 07:04:01;;;;;;;5.18;1.60;;;;;;;;;;5063050;28;20173;-76
2020/12/01 07:06:27;;;;;;;4.57;2.03;;;;;;;;;;5063822;28;20183;-76
2020/12/01 07:09:03;;;;;;;4.60;1.97;;;;;;;;;;5062570;28;20204;-77
2020/12/01 07:11:31;;;;;;;1.90;1.40;;;;;;;;;;5062654;28;20849;-76
2020/12/01 07:14:17;;;;;;;3.25;1.45;;;;;;;;;;5061737;28;20177;-77
2020/12/01 07:16:47;;;;;;;5.53;1.80;;;;;;;;;;5059088;28;20232;-77
2020/12/01 07:19:16;;;;;;;7.25;1.75;;;;;;;;;;5061611;28;20192;-76
2020/12/01 07:22:01;;;;;;;5.90;1.85;;;;;;;;;;5062600;28;20184;-76
2020/12/01 07:24:36;;;;;;;3.88;1.85;;;;;;;;;;5062772;28;20181;-76
2020/12/01 07:27:05;;;;;;;6.88;1.73;;;;;;;;;;5054373;28;20243;-77
2020/12/01 07:29:43;;;;;;;3.92;1.20;;;;;;;;;;5053850;28;20182;-77
2020/12/01 07:32:17;;;;;;;2.97;1.58;;;;;;;;;;5047521;28;20244;-76
2020/12/01 07:34:43;;;;;;;3.42;1.40;;;;;;;;;;5081118;28;20581;-77
2020/12/01 07:37:15;;;;;;;5.07;1.35;;;;;;;;;;5062307;28;20228;-78
2020/12/01 07:39:53;;;;;;;4.85;1.70;;;;;;;;;;5061834;28;20653;-76
2020/12/01 07:42:21;;;;;;;2.25;1.30;;;;;;;;;;5062011;28;20177;-76
2020/12/01 07:44:47;;;;;;;1.55;1.08;;;;;;;;;;5062444;28;20192;-76
2020/12/01 07:47:17;;;;;;;2.38;1.25;;;;;;;;;;5062732;28;20435;-77
2020/12/01 07:49:43;;;;;;;6.57;1.92;;;;;;;;;;5061503;28;20207;-77
2020/12/01 07:52:12;;;;;;;5.78;2.00;;;;;;;;;;5063432;28;20248;-77
2020/12/01 07:54:39;;;;;;;6.43;1.52;;;;;;;;;;5061587;28;20212;-76
2020/12/01 07:57:12;;;;;;;4.40;2.15;;;;;;;;;;5061584;28;20197;-76
2020/12/01 07:59:42;;;;;;;5.20;1.60;;;;;;;;;;5062234;28;20181;-77
2020/12/01 08:02:08;;;;;;;2.70;1.60;;;;;;;;;;5061553;28;20172;-77
2020/12/01 08:04:34;;;;;;;2.85;1.63;;;;;;;;;;5061950;28;20170;-77
2020/12/01 08:07:06;;;;;;;4.15;1.42;;;;;;;;;;5063565;28;20173;-76
2020/12/01 08:09:32;;;;;;;6.03;1.30;;;;;;;;;;5057394;28;20185;-78
2020/12/01 08:12:07;;;;;;;3.17;1.40;;;;;;;;;;5061712;28;20188;-76
2020/12/01 08:14:33;;;;;;;7.78;1.60;;;;;;;;;;5059844;28;20177;-77
2020/12/01 08:17:15;;;;;;;3.63;1.55;;;;;;;;;;5062076;28;20211;-77
2020/12/01 08:19:41;;;;;;;3.20;1.65;;;;;;;;;;5062721;28;20203;-76
2020/12/01 08:22:08;;;;;;;5.68;2.28;;;;;;;;;;5062376;28;20178;-77
2020/12/01 08:24:36;;;;;;;4.47;1.80;;;;;;;;;;5062731;28;20204;-77
2020/12/01 08:27:07;;;;;;;8.15;1.88;;;;;;;;;;5058859;28;20193;-77
2020/12/01 08:29:36;;;;;;;7.68;2.08;;;;;;;;;;5060479;28;20181;-77
2020/12/01 08:32:17;;;;;;;8.85;2.45;;;;;;;;;;5061517;28;20244;-77
2020/12/01 08:34:51;;;;;;;5.13;1.67;;;;;;;;;;5062128;28;20216;-77
2020/12/01 08:37:27;;;;;;;8.30;2.08;;;;;;;;;;5045623;28;20221;-77
2020/12/01 08:40:12;;;;;;;6.60;1.60;;;;;;;;;;5058563;28;20522;-79
2020/12/01 08:42:38;;;;;;;4.13;1.60;;;;;;;;;;5049086;28;20186;-78
2020/12/01 08:45:14;;;;;;;4.33;2.10;;;;;;;;;;5054438;28;20215;-77
2020/12/01 08:47:41;;;;;;;6.05;1.98;;;;;;;;;;5066152;28;20439;-78
2020/12/01 08:50:19;;;;;;;9.32;2.22;;;;;;;;;;5063731;28;20188;-77
2020/12/01 08:52:46;;;;;;;6.53;2.05;;;;;;;;;;5044764;28;20185;-77
2020/12/01 08:55:21;;;;;;;5.47;1.73;;;;;;;;;;5061792;28;20264;-77
2020/12/01 08:57:50;;;;;;;4.70;1.85;;;;;;;;;;5048432;28;20200;-78
2020/12/01 09:00:17;;;;;;;5.03;2.00;;;;;;;;;;5045376;28;20182;-77
2020/12/01 09:02:48;;;;;;;2.45;1.27;;;;;;;;;;5058929;28;20195;-77
2020/12/01 09:05:28;;;;;;;7.70;1.90;;;;;;;;;;5065394;28;20211;-76
2020/12/01 09:08:59;;;;;;;3.85;1.50;;;;;;;;;;5065826;28;20169;-77
2020/12/01 09:11:24;;;;;;;9.63;3.97;;;;;;;;;;5063509;28;20173;-83
2020/12/01 09:13:51;;;;;;;9.00;1.55;;;;;;;;;;5062853;28;20181;-77
2020/12/01 09:16:32;;;;;;;7.55;2.70;;;;;;;;;;5065322;28;20205;-76
2020/12/01 09:24:06;;;;;;;5.53;1.70;;;;;;;;;;5075904;28;20189;-79
2020/12/01 09:26:32;;;;;;;8.05;1.65;;;;;;;;;;5064713;28;20227;-77
2020/12/01 09:28:58;;;;;;;4.90;1.90;;;;;;;;;;5064333;28;20204;-78
2020/12/01 09:31:24;;;;;;;11.57;3.65;;;;;;;;;;5046691;28;20182;-79
2020/12/01 09:33:53;;;;;;;4.47;2.20;;;;;;;;;;5060850;28;20267;-79
2020/12/01 09:36:20;;;;;;;7.10;3.00;;;;;;;;;;5054262;28;20229;-78
2020/12/01 09:38:46;;;;;;;4.70;1.33;;;;;;;;;;5044504;28;20189;-78
2020/12/01 09:41:16;;;;;;;5.13;2.15;;;;;;;;;;5045202;28;20178;-77
2020/12/01 09:46:49;;;;;;;3.88;1.83;;;;;;;;;;5023301;28;20214;-81
2020/12/01 09:49:15;;;;;;;8.20;2.15;;;;;;;;;;5003888;28;20206;-77
2020/12/01 09:51:50;;;;;;;6.70;1.63;;;;;;;;;;5026251;28;20181;-79
2020/12/01 09:54:29;;;;;;;5.15;3.05;;;;;;;;;;5006744;28;20213;-78
2020/12/01 09:57:07;;;;;;;5.38;1.95;;;;;;;;;;5006879;28;20366;-77
2020/12/01 10:12:32;;;;;;;4.80;1.80;;;;;;;;;;5022002;28;20198;-76
2020/12/01 10:17:46;;;;;;;5.50;2.28;;;;;;;;;;5022758;28;20210;-77
2020/12/01 10:29:34;;;;;;;7.43;1.90;;;;;;;;;;5064653;28;20177;-76
2020/12/01 10:31:51;;;;;;;6.57;3.53;;;;;;;;;;5065059;28;20185;-77
2020/12/01 10:36:28;;;;;;;5.47;2.25;;;;;;;;;;5046709;28;20233;-81
2020/12/01 10:38:54;;;;;;;8.45;3.00;;;;;;;;;;5044484;28;20524;-77
2020/12/01 10:41:27;;;;;;;7.95;2.05;;;;;;;;;;5063852;28;20180;-77
2020/12/01 10:43:53;;;;;;;6.28;1.92;;;;;;;;;;5063956;28;20666;-77
2020/12/01 10:46:19;;;;;;;8.55;2.10;;;;;;;;;;5064609;28;20177;-76
2020/12/01 10:48:45;;;;;;;8.57;2.10;;;;;;;;;;5064171;28;20235;-84
2020/12/01 10:51:11;;;;;;;5.10;1.73;;;;;;;;;;5063081;28;20193;-76
2020/12/01 10:53:38;;;;;;;6.32;1.88;;;;;;;;;;5063194;28;20200;-79
2020/12/01 10:56:04;;;;;;;11.13;1.85;;;;;;;;;;5063292;28;20212;-79
2020/12/01 10:58:30;;;;;;;7.57;2.25;;;;;;;;;;5042581;28;20702;-77
2020/12/01 11:00:56;;;;;;;3.28;2.97;;;;;;;;;;5044321;28;20220;-77
2020/12/01 11:03:22;;;;;;;9.97;2.40;;;;;;;;;;5054582;28;20181;-78
2020/12/01 11:05:48;;;;;;;6.95;1.92;;;;;;;;;;5062963;28;20419;-78
2020/12/01 11:08:14;;;;;;;2.00;1.30;;;;;;;;;;5062524;28;20187;-78
2020/12/01 11:10:41;;;;;;;10.88;3.40;;;;;;;;;;5063009;28;20176;-77
2020/12/01 11:13:09;;;;;;;8.00;1.75;;;;;;;;;;5062237;28;20193;-77
2020/12/01 11:15:35;;;;;;;7.80;2.47;;;;;;;;;;5064827;28;20521;-78
2020/12/01 11:18:01;;;;;;;8.43;1.65;;;;;;;;;;5062227;28;20211;-77
2020/12/01 11:20:27;;;;;;;7.28;2.17;;;;;;;;;;5061363;28;20212;-76
2020/12/01 11:22:53;;;;;;;3.83;2.05;;;;;;;;;;5063380;28;20208;-79
2020/12/01 11:25:20;;;;;;;7.22;1.95;;;;;;;;;;5063624;28;20195;-78
2020/12/01 11:27:46;;;;;;;4.90;2.00;;;;;;;;;;5063065;28;20209;-80
2020/12/01 11:30:12;;;;;;;14.20;2.55;;;;;;;;;;5063949;28;20250;-77
2020/12/01 11:32:38;;;;;;;9.68;3.10;;;;;;;;;;5063061;28;20212;-77
2020/12/01 11:35:05;;;;;;;6.53;2.17;;;;;;;;;;5062840;28;20244;-77
2020/12/01 11:37:31;;;;;;;5.03;1.63;;;;;;;;;;5062833;28;20232;-77
2020/12/01 11:39:57;;;;;;;5.32;1.75;;;;;;;;;;5046317;28;20213;-78
2020/12/01 11:42:23;;;;;;;9.15;2.22;;;;;;;;;;5043719;28;20177;-77
2020/12/01 11:44:49;;;;;;;7.13;2.63;;;;;;;;;;5045975;28;20241;-79
2020/12/01 11:47:15;;;;;;;4.18;1.83;;;;;;;;;;5061066;28;20192;-78
2020/12/01 11:49:41;;;;;;;5.07;2.27;;;;;;;;;;5042390;28;20186;-77
2020/12/01 11:52:07;;;;;;;12.90;2.25;;;;;;;;;;5060269;28;20493;-76
2020/12/01 11:54:33;;;;;;;4.83;1.90;;;;;;;;;;5062039;28;20184;-78
2020/12/01 11:56:59;;;;;;;5.53;2.35;;;;;;;;;;5063546;28;20455;-77
2020/12/01 11:59:25;;;;;;;13.40;2.63;;;;;;;;;;5061908;28;20177;-77
2020/12/01 12:01:51;;;;;;;6.40;2.03;;;;;;;;;;5062806;28;20177;-81
2020/12/01 12:04:17;;;;;;;7.85;1.77;;;;;;;;;;5061916;28;20277;-78
2020/12/01 12:06:43;;;;;;;10.23;1.70;;;;;;;;;;5061716;28;20187;-77
2020/12/01 12:09:10;;;;;;;6.00;1.60;;;;;;;;;;5063451;28;20180;-78
2020/12/01 12:11:36;;;;;;;3.78;1.60;;;;;;;;;;5061641;28;20203;-79
2020/12/01 12:14:03;;;;;;;8.57;2.05;;;;;;;;;;5062026;28;20193;-76
2020/12/01 12:16:29;;;;;;;8.60;2.60;;;;;;;;;;5045194;28;20212;-77
2020/12/01 12:18:55;;;;;;;7.13;2.25;;;;;;;;;;5058009;28;20177;-76
2020/12/01 12:21:21;;;;;;;8.98;1.70;;;;;;;;;;5065650;28;20180;-77
2020/12/01 12:23:48;;;;;;;6.13;2.03;;;;;;;;;;5063177;28;20238;-80
2020/12/01 12:26:14;;;;;;;6.00;1.80;;;;;;;;;;5059299;28;20181;-79
2020/12/01 12:28:40;;;;;;;6.35;2.20;;;;;;;;;;5045490;28;20182;-77
2020/12/01 12:31:06;;;;;;;8.43;2.00;;;;;;;;;;5065340;28;20191;-78
2020/12/01 12:33:32;;;;;;;2.28;1.58;;;;;;;;;;5065723;28;20196;-80
2020/12/01 12:35:59;;;;;;;6.07;1.80;;;;;;;;;;5055998;28;20237;-76
2020/12/01 12:38:25;;;;;;;11.57;2.00;;;;;;;;;;5055909;28;20182;-79
2020/12/01 12:40:51;;;;;;;8.93;2.28;;;;;;;;;;5062127;28;20665;-77
2020/12/01 12:43:21;;;;;;;5.38;2.10;;;;;;;;;;5060391;28;20766;-77
2020/12/01 12:45:47;;;;;;;6.75;2.17;;;;;;;;;;5053342;28;20209;-76
2020/12/01 12:48:14;;;;;;;5.63;2.53;;;;;;;;;;5063989;28;20583;-76
2020/12/01 12:50:40;;;;;;;6.20;1.60;;;;;;;;;;5065527;28;20551;-76
2020/12/01 12:53:06;;;;;;;4.35;1.55;;;;;;;;;;5065241;28;20181;-78
2020/12/01 12:55:32;;;;;;;4.75;1.80;;;;;;;;;;5065468;28;20184;-76
2020/12/01 12:58:01;;;;;;;8.93;2.35;;;;;;;;;;5060849;28;20182;-77
2020/12/01 13:00:28;;;;;;;4.97;1.50;;;;;;;;;;5053703;28;20705;-82
2020/12/01 13:02:54;;;;;;;3.50;1.80;;;;;;;;;;5052791;28;20177;-76
2020/12/01 13:05:20;;;;;;;3.55;1.40;;;;;;;;;;5064907;28;20214;-75
2020/12/01 13:07:46;;;;;;;3.45;1.90;;;;;;;;;;5064778;28;20188;-77
2020/12/01 13:10:13;;;;;;;6.38;1.65;;;;;;;;;;5054839;28;20202;-76
2020/12/01 13:12:39;;;;;;;7.28;1.40;;;;;;;;;;5062315;28;20196;-80
2020/12/01 13:15:06;;;;;;;2.97;1.42;;;;;;;;;;5065047;28;20185;-76
2020/12/01 13:17:32;;;;;;;3.25;1.85;;;;;;;;;;5054790;28;20227;-78
2020/12/01 13:19:58;;;;;;;8.27;2.55;;;;;;;;;;5063947;28;20177;-76
2020/12/01 13:22:24;;;;;;;7.20;1.95;;;;;;;;;;5063827;28;20219;-77
2020/12/01 13:24:50;;;;;;;7.80;1.75;;;;;;;;;;5061704;28;20181;-76
2020/12/01 13:27:16;;;;;;;3.60;1.58;;;;;;;;;;5064791;28;20180;-77
2020/12/01 13:29:42;;;;;;;7.35;1.63;;;;;;;;;;5063721;28;20178;-76
2020/12/01 13:32:08;;;;;;;6.65;1.77;;;;;;;;;;5062604;28;20188;-76
2020/12/01 13:34:34;;;;;;;7.80;2.90;;;;;;;;;;5045972;28;20189;-78
2020/12/01 13:37:00;;;;;;;9.70;2.97;;;;;;;;;;5078365;28;20224;-76
2020/12/01 13:39:26;;;;;;;5.00;1.60;;;;;;;;;;5084594;28;20472;-76
2020/12/01 13:41:52;;;;;;;8.95;1.65;;;;;;;;;;5077720;28;20432;-76
2020/12/01 13:44:19;;;;;;;2.53;1.40;;;;;;;;;;5059436;28;20188;-77
2020/12/01 13:46:45;;;;;;;4.15;1.35;;;;;;;;;;5063208;28;20223;-76
2020/12/01 13:49:15;;;;;;;7.95;2.15;;;;;;;;;;5061259;28;20180;-77
2020/12/01 13:51:41;;;;;;;3.95;2.35;;;;;;;;;;5063049;28;20182;-77
2020/12/01 13:54:07;;;;;;;5.70;1.25;;;;;;;;;;5064494;28;20177;-77
2020/12/01 13:56:34;;;;;;;6.40;2.72;;;;;;;;;;5062318;28;20280;-77
2020/12/01 13:59:01;;;;;;;11.38;2.10;;;;;;;;;;5061720;28;20173;-78
2020/12/01 14:01:27;;;;;;;3.70;1.20;;;;;;;;;;5062742;28;20437;-78
2020/12/01 14:03:53;;;;;;;5.88;2.08;;;;;;;;;;5062338;28;20546;-78
2020/12/01 14:06:19;;;;;;;3.80;1.70;;;;;;;;;;5063693;28;20189;-80
2020/12/01 14:08:46;;;;;;;5.45;1.70;;;;;;;;;;5064604;28;20260;-77
2020/12/01 14:11:13;;;;;;;4.97;1.42;;;;;;;;;;5059973;28;20185;-76
2020/12/01 14:13:39;;;;;;;8.35;2.40;;;;;;;;;;5061772;28;20182;-78
2020/12/01 14:16:05;;;;;;;6.38;2.63;;;;;;;;;;5063803;28;20479;-81
2020/12/01 14:18:32;;;;;;;5.60;1.67;;;;;;;;;;5061967;28;20352;-78
2020/12/01 14:20:59;;;;;;;5.57;1.88;;;;;;;;;;5062564;28;20180;-79
2020/12/01 14:23:25;;;;;;;6.70;2.30;;;;;;;;;;5063971;28;20177;-76
2020/12/01 14:25:53;;;;;;;5.70;2.05;;;;;;;;;;5063276;28;20185;-77
2020/12/01 14:28:19;;;;;;;9.23;1.92;;;;;;;;;;5061181;28;20181;-77
2020/12/01 14:30:45;;;;;;;4.43;1.88;;;;;;;;;;5062896;28;20280;-77
2020/12/01 14:33:11;;;;;;;5.35;1.25;;;;;;;;;;5059108;28;20169;-78
2020/12/01 14:35:37;;;;;;;5.18;2.10;;;;;;;;;;5051372;28;20304;-81
2020/12/01 14:38:03;;;;;;;1.98;1.35;;;;;;;;;;5042515;28;20181;-77
2020/12/01 14:40:29;;;;;;;4.70;2.20;;;;;;;;;;5058218;28;20208;-79
2020/12/01 14:42:59;;;;;;;3.45;1.80;;;;;;;;;;5065882;28;20205;-77
2020/12/01 14:45:25;;;;;;;4.90;2.17;;;;;;;;;;5063263;28;20169;-76
2020/12/01 14:48:10;;;;;;;13.48;5.38;;;;;;;;;;5063204;28;20187;-76
2020/12/01 14:50:42;;;;;;;6.20;1.80;;;;;;;;;;5061686;28;20185;-76
2020/12/01 14:53:14;;;;;;;5.32;1.80;;;;;;;;;;5061647;28;20200;-76
2020/12/01 14:55:52;;;;;;;8.50;2.53;;;;;;;;;;5060189;28;20260;-77
2020/12/01 14:58:18;;;;;;;5.32;1.90;;;;;;;;;;5057373;28;20548;-76
2020/12/01 15:00:51;;;;;;;9.20;3.37;;;;;;;;;;5070376;28;20192;-76
2020/12/01 15:03:31;;;;;;;15.52;2.38;;;;;;;;;;5070953;28;20427;-77
2020/12/01 15:06:13;;;;;;;6.00;1.98;;;;;;;;;;5046182;28;20196;-77
2020/12/01 15:08:58;;;;;;;7.47;2.75;;;;;;;;;;5061923;28;20250;-77
2020/12/01 15:11:23;;;;;;;9.43;1.98;;;;;;;;;;5056166;28;20192;-77
2020/12/01 15:13:49;;;;;;;6.53;2.53;;;;;;;;;;5047227;28;20192;-76
2020/12/01 15:16:22;;;;;;;10.77;3.15;;;;;;;;;;5052167;28;20529;-78
2020/12/01 15:18:51;;;;;;;6.82;2.10;;;;;;;;;;5049255;28;20209;-78
2020/12/01 15:21:18;;;;;;;5.35;1.50;;;;;;;;;;5067375;28;20194;-78
2020/12/01 15:23:57;;;;;;;5.20;1.67;;;;;;;;;;5066742;28;20609;-79
2020/12/01 15:26:23;;;;;;;4.75;2.42;;;;;;;;;;5069307;28;20176;-78